Time;durP1;ratioP1;P1;durP2;ratioP2;P2;SDS_P1;SDS_P2;PMS_P1;PMS_P2;Temp;Humidity;BMP_temperature;BMP_pressure;BME280_temperature;BME280_humidity;BME280_pressure;Samples;Min_cycle;Max_cycle;Signal;HPM_P1;HPM_P2
2023/07/03 00:01:49;;;;;;;9.73;3.03;;;15.70;99.90;;;;;;5051860;28;20433;-68
2023/07/03 00:04:15;;;;;;;4.50;2.70;;;15.70;99.90;;;;;;5051996;28;20209;-68
2023/07/03 00:06:40;;;;;;;11.87;2.70;;;15.70;99.90;;;;;;5050013;28;20449;-68
2023/07/03 00:09:06;;;;;;;9.13;2.97;;;15.60;99.90;;;;;;5051928;28;20219;-68
2023/07/03 00:11:32;;;;;;;4.40;2.70;;;15.60;99.90;;;;;;5051863;28;20171;-69
2023/07/03 00:13:58;;;;;;;12.50;3.00;;;15.50;99.90;;;;;;5050555;28;20159;-68
2023/07/03 00:16:24;;;;;;;9.03;2.90;;;15.50;99.90;;;;;;5051510;28;20551;-68
2023/07/03 00:18:49;;;;;;;9.00;2.40;;;15.50;99.90;;;;;;5051841;28;20182;-68
2023/07/03 00:21:15;;;;;;;6.17;2.47;;;15.40;99.90;;;;;;5050505;28;20687;-68
2023/07/03 00:23:40;;;;;;;6.73;2.73;;;15.40;99.90;;;;;;5050579;28;20541;-68
2023/07/03 00:26:05;;;;;;;5.53;3.27;;;15.40;99.90;;;;;;5051503;28;20167;-69
2023/07/03 00:28:31;;;;;;;4.60;2.90;;;15.40;99.90;;;;;;5051315;28;20217;-69
2023/07/03 00:30:56;;;;;;;6.93;2.00;;;15.40;99.90;;;;;;5050280;28;20578;-68
2023/07/03 00:33:22;;;;;;;8.40;2.50;;;15.30;99.90;;;;;;5051390;28;20705;-69
2023/07/03 00:35:48;;;;;;;5.00;2.90;;;15.30;99.90;;;;;;5051394;28;20163;-68
2023/07/03 00:38:13;;;;;;;8.60;2.70;;;15.30;99.90;;;;;;5051287;28;20187;-68
2023/07/03 00:40:39;;;;;;;5.50;3.10;;;15.20;99.90;;;;;;5051073;28;20163;-69
2023/07/03 00:43:04;;;;;;;11.50;2.77;;;15.10;99.90;;;;;;5051588;28;20579;-68
2023/07/03 00:45:32;;;;;;;8.03;2.70;;;15.10;99.90;;;;;;5051291;28;20572;-68
2023/07/03 00:47:58;;;;;;;4.10;2.70;;;15.00;99.90;;;;;;5051430;28;20199;-68
2023/07/03 00:50:23;;;;;;;5.60;2.47;;;15.00;99.90;;;;;;5051767;28;20964;-69
2023/07/03 00:52:55;;;;;;;9.20;3.27;;;15.00;99.90;;;;;;5051500;28;20163;-69
2023/07/03 00:55:22;;;;;;;6.00;3.03;;;14.90;99.90;;;;;;5051246;28;20163;-70
2023/07/03 00:57:48;;;;;;;5.03;2.50;;;14.80;99.90;;;;;;5051009;28;20428;-68
2023/07/03 01:00:14;;;;;;;5.80;2.43;;;14.80;99.90;;;;;;5051740;28;20906;-68
2023/07/03 01:02:50;;;;;;;6.27;2.27;;;14.80;99.90;;;;;;5051428;28;20167;-69
2023/07/03 01:05:25;;;;;;;9.20;4.60;;;14.80;99.90;;;;;;5051079;28;20436;-69
2023/07/03 01:07:52;;;;;;;4.63;2.20;;;14.80;99.90;;;;;;5051113;28;20570;-68
2023/07/03 01:10:21;;;;;;;8.50;2.20;;;14.70;99.90;;;;;;5051370;28;20413;-69
2023/07/03 01:12:50;;;;;;;12.67;2.57;;;14.60;99.90;;;;;;5050002;28;20460;-68
2023/07/03 01:15:27;;;;;;;14.50;2.20;;;14.60;99.90;;;;;;5051083;28;20409;-68
2023/07/03 01:17:55;;;;;;;6.93;3.30;;;14.60;99.90;;;;;;5052628;28;20440;-68
2023/07/03 01:20:24;;;;;;;6.67;2.97;;;14.50;99.90;;;;;;5054833;28;20798;-69
2023/07/03 01:22:58;;;;;;;4.63;2.00;;;14.50;99.90;;;;;;5054752;28;20455;-68
2023/07/03 01:25:25;;;;;;;2.30;1.80;;;14.50;99.90;;;;;;5054567;28;20401;-68
2023/07/03 01:27:52;;;;;;;5.57;2.97;;;14.40;99.90;;;;;;5054666;28;20489;-69
2023/07/03 01:30:19;;;;;;;15.60;2.73;;;14.40;99.90;;;;;;5054741;28;20401;-68
2023/07/03 01:32:48;;;;;;;6.20;2.57;;;14.40;99.90;;;;;;5053293;28;20410;-68
2023/07/03 01:35:14;;;;;;;9.03;2.87;;;14.40;99.90;;;;;;5054262;28;20405;-69
2023/07/03 01:37:43;;;;;;;10.33;2.70;;;14.40;99.90;;;;;;5054577;28;21023;-69
2023/07/03 01:40:12;;;;;;;9.43;2.03;;;14.30;99.90;;;;;;5054584;28;20413;-68
2023/07/03 01:42:40;;;;;;;5.00;2.60;;;14.20;99.90;;;;;;5054494;28;20459;-68
2023/07/03 01:45:07;;;;;;;7.90;2.87;;;14.30;99.90;;;;;;5054128;28;20409;-69
2023/07/03 01:47:33;;;;;;;12.27;2.83;;;14.20;99.90;;;;;;5054224;28;20896;-68
2023/07/03 01:49:58;;;;;;;7.10;2.33;;;14.20;99.90;;;;;;5054209;28;20430;-69
2023/07/03 01:52:34;;;;;;;17.73;3.20;;;14.20;99.90;;;;;;5053019;28;20170;-68
2023/07/03 01:55:39;;;;;;;14.83;2.80;;;14.20;99.90;;;;;;5053964;28;20167;-71
2023/07/03 01:58:10;;;;;;;7.63;2.40;;;14.20;99.90;;;;;;5054016;28;20779;-69
2023/07/03 02:00:41;;;;;;;10.10;3.13;;;14.20;99.90;;;;;;5054174;28;20402;-68
2023/07/03 02:03:21;;;;;;;8.03;2.90;;;14.10;99.90;;;;;;5054006;28;20406;-68
2023/07/03 02:05:48;;;;;;;5.93;2.80;;;14.10;99.90;;;;;;5053871;28;20419;-68
2023/07/03 02:08:16;;;;;;;5.30;2.30;;;14.00;99.90;;;;;;5053677;28;20504;-69
2023/07/03 02:10:42;;;;;;;5.97;2.50;;;14.00;99.90;;;;;;5053811;28;20435;-70
2023/07/03 02:13:08;;;;;;;9.90;2.40;;;13.90;99.90;;;;;;5053928;28;20476;-68
2023/07/03 02:15:34;;;;;;;2.70;2.33;;;13.80;99.90;;;;;;5053497;28;20254;-68
2023/07/03 02:18:02;;;;;;;3.90;2.13;;;13.70;99.90;;;;;;5053689;28;20191;-69
2023/07/03 02:20:28;;;;;;;3.67;2.00;;;13.60;99.90;;;;;;5053907;28;20890;-68
2023/07/03 02:22:53;;;;;;;10.30;3.80;;;13.60;99.90;;;;;;5052422;28;20414;-68
2023/07/03 02:25:19;;;;;;;8.50;3.10;;;13.50;99.90;;;;;;5053408;28;20405;-68
2023/07/03 02:27:44;;;;;;;7.50;2.50;;;13.50;99.90;;;;;;5053574;28;20273;-69
2023/07/03 02:30:11;;;;;;;3.80;2.40;;;13.40;99.90;;;;;;5053561;28;20906;-69
2023/07/03 02:32:39;;;;;;;6.67;2.43;;;13.30;99.90;;;;;;5052245;28;20163;-68
2023/07/03 02:35:07;;;;;;;4.73;2.50;;;13.30;99.90;;;;;;5052990;28;20409;-68
2023/07/03 02:37:32;;;;;;;12.10;2.50;;;13.20;99.90;;;;;;5053214;28;20433;-68
2023/07/03 02:39:58;;;;;;;6.93;2.40;;;13.20;99.90;;;;;;5052079;28;20414;-69
2023/07/03 02:42:23;;;;;;;8.47;3.00;;;13.20;99.90;;;;;;5053352;28;20190;-69
2023/07/03 02:44:49;;;;;;;13.60;3.10;;;13.20;99.90;;;;;;5053285;28;20190;-68
2023/07/03 02:47:15;;;;;;;5.33;2.33;;;13.10;99.90;;;;;;5052787;28;20183;-69
2023/07/03 02:49:41;;;;;;;10.33;3.97;;;13.10;99.90;;;;;;5053199;28;20445;-68
2023/07/03 02:52:07;;;;;;;8.67;3.50;;;13.10;99.90;;;;;;5053146;28;20163;-69
2023/07/03 02:54:33;;;;;;;6.67;2.93;;;13.20;99.90;;;;;;5053050;28;20497;-68
2023/07/03 02:56:58;;;;;;;5.10;2.60;;;13.20;99.90;;;;;;5052710;28;20195;-68
2023/07/03 02:59:24;;;;;;;14.93;4.10;;;13.20;99.90;;;;;;5053039;28;20528;-68
2023/07/03 03:01:49;;;;;;;10.27;3.93;;;13.30;99.90;;;;;;5052854;28;20198;-68
2023/07/03 03:04:16;;;;;;;8.00;3.40;;;13.30;99.90;;;;;;5052965;28;20213;-68
2023/07/03 03:06:42;;;;;;;9.00;2.83;;;13.40;99.90;;;;;;5052400;28;20216;-68
2023/07/03 03:09:09;;;;;;;7.50;2.33;;;13.50;99.90;;;;;;5052702;28;20528;-68
2023/07/03 03:11:35;;;;;;;6.93;2.70;;;13.50;99.90;;;;;;5052920;28;20884;-69
2023/07/03 03:14:00;;;;;;;10.07;2.57;;;13.50;99.90;;;;;;5052713;28;20416;-68
2023/07/03 03:16:26;;;;;;;14.17;3.07;;;13.60;99.90;;;;;;5052311;28;20898;-68
2023/07/03 03:18:52;;;;;;;4.83;2.63;;;13.60;99.90;;;;;;5052637;28;20652;-68
2023/07/03 03:21:17;;;;;;;10.53;4.03;;;13.70;99.90;;;;;;5051235;28;20171;-68
2023/07/03 03:23:43;;;;;;;4.17;1.93;;;13.80;99.90;;;;;;5052375;28;20654;-68
2023/07/03 03:26:08;;;;;;;10.97;2.53;;;13.80;99.90;;;;;;5052246;28;20197;-68
2023/07/03 03:28:34;;;;;;;8.97;3.40;;;13.80;99.90;;;;;;5052387;28;20265;-68
2023/07/03 03:31:00;;;;;;;6.47;2.37;;;13.80;99.90;;;;;;5052399;28;20178;-68
2023/07/03 03:33:25;;;;;;;9.93;2.30;;;13.80;99.90;;;;;;5052304;28;20166;-68
2023/07/03 03:35:51;;;;;;;8.40;3.07;;;13.80;99.90;;;;;;5052103;28;20590;-68
2023/07/03 03:38:16;;;;;;;9.53;3.27;;;13.80;99.90;;;;;;5052155;28;20195;-69
2023/07/03 03:40:57;;;;;;;7.37;2.83;;;13.80;99.90;;;;;;5050672;28;20258;-68
2023/07/03 03:43:23;;;;;;;8.47;3.53;;;13.80;99.90;;;;;;5052273;28;20163;-68
2023/07/03 03:46:00;;;;;;;7.70;2.53;;;13.80;99.90;;;;;;5051898;28;20500;-68
2023/07/03 03:48:27;;;;;;;6.33;2.23;;;13.80;99.90;;;;;;5052133;28;20194;-68
2023/07/03 03:50:53;;;;;;;5.67;2.43;;;13.90;99.90;;;;;;5052075;28;20409;-68
2023/07/03 03:53:19;;;;;;;6.30;2.63;;;13.90;99.90;;;;;;5052089;28;20482;-69
2023/07/03 03:55:51;;;;;;;11.70;2.70;;;13.90;99.90;;;;;;5051946;28;20847;-68
2023/07/03 03:58:18;;;;;;;10.33;2.50;;;14.00;99.90;;;;;;5050918;28;20527;-68
2023/07/03 04:00:44;;;;;;;13.53;2.40;;;13.90;99.90;;;;;;5051999;28;20397;-68
2023/07/03 04:03:10;;;;;;;5.53;2.00;;;14.00;99.90;;;;;;5052074;28;20401;-68
2023/07/03 04:05:36;;;;;;;10.00;2.50;;;14.10;99.90;;;;;;5051720;28;20752;-68
2023/07/03 04:08:02;;;;;;;14.07;4.20;;;14.10;99.90;;;;;;5051787;28;20209;-68
2023/07/03 04:10:27;;;;;;;7.57;2.83;;;14.10;99.90;;;;;;5052026;28;20406;-69
2023/07/03 04:12:53;;;;;;;15.83;4.10;;;14.10;99.90;;;;;;5051890;28;20640;-68
2023/07/03 04:15:18;;;;;;;8.30;2.90;;;14.20;99.90;;;;;;5051552;28;20242;-68
2023/07/03 04:17:44;;;;;;;4.90;2.93;;;14.20;99.90;;;;;;5051789;28;20300;-68
2023/07/03 04:20:13;;;;;;;10.77;2.93;;;14.30;99.90;;;;;;5051817;28;20167;-69
2023/07/03 04:22:39;;;;;;;9.70;3.03;;;14.30;99.90;;;;;;5051883;28;20670;-68
2023/07/03 04:25:05;;;;;;;5.83;2.83;;;14.40;99.90;;;;;;5051602;28;20761;-69
2023/07/03 04:27:31;;;;;;;4.43;2.30;;;14.40;99.90;;;;;;5051587;28;21020;-68
2023/07/03 04:29:56;;;;;;;14.23;3.57;;;14.50;99.90;;;;;;5050318;28;20496;-69
2023/07/03 04:32:22;;;;;;;9.23;3.17;;;14.50;99.90;;;;;;5051675;28;20258;-69
2023/07/03 04:34:47;;;;;;;5.93;3.00;;;14.50;99.90;;;;;;5051681;28;20222;-68
2023/07/03 04:37:13;;;;;;;8.70;2.70;;;14.60;99.90;;;;;;5051207;28;20183;-68
2023/07/03 04:39:39;;;;;;;2.97;2.40;;;14.70;99.90;;;;;;5051804;28;20163;-68
2023/07/03 04:42:05;;;;;;;16.63;3.40;;;14.70;99.90;;;;;;5050361;28;20459;-69
2023/07/03 04:44:33;;;;;;;18.27;7.53;;;14.80;99.90;;;;;;5050303;28;20262;-69
2023/07/03 04:47:04;;;;;;;19.17;3.20;;;14.90;99.90;;;;;;5049885;28;20226;-68
2023/07/03 04:49:30;;;;;;;12.93;3.50;;;14.90;99.90;;;;;;5051861;28;20488;-68
2023/07/03 04:51:56;;;;;;;14.77;3.23;;;15.00;99.90;;;;;;5051629;28;20770;-68
2023/07/03 04:54:22;;;;;;;8.97;3.50;;;15.00;99.90;;;;;;5055490;28;20397;-68
2023/07/03 04:56:48;;;;;;;7.30;2.63;;;15.00;99.90;;;;;;5055069;28;20656;-68
2023/07/03 04:59:14;;;;;;;9.73;2.93;;;15.10;99.90;;;;;;5055290;28;20433;-69
2023/07/03 05:01:43;;;;;;;10.70;3.00;;;15.10;99.90;;;;;;5055238;28;20447;-68
2023/07/03 05:04:12;;;;;;;20.33;3.60;;;15.20;99.90;;;;;;5055238;28;20436;-69
2023/07/03 05:06:38;;;;;;;9.97;2.33;;;15.10;99.90;;;;;;5054713;28;20472;-69
2023/07/03 05:09:05;;;;;;;11.60;2.93;;;15.20;99.90;;;;;;5055065;28;20809;-69
2023/07/03 05:11:32;;;;;;;8.20;2.50;;;15.30;99.90;;;;;;5055153;28;20926;-68
2023/07/03 05:13:58;;;;;;;4.10;2.63;;;15.40;99.90;;;;;;5054889;28;20769;-69
2023/07/03 05:16:23;;;;;;;11.97;3.07;;;15.40;99.90;;;;;;5054604;28;20420;-69
2023/07/03 05:18:49;;;;;;;11.83;2.50;;;15.50;99.90;;;;;;5054918;28;20171;-69
2023/07/03 05:21:14;;;;;;;7.10;4.00;;;15.50;99.90;;;;;;5054917;28;20170;-68
2023/07/03 05:23:40;;;;;;;5.50;2.80;;;15.50;99.90;;;;;;5054868;28;20260;-69
2023/07/03 05:26:06;;;;;;;9.37;3.37;;;15.60;99.90;;;;;;5054610;28;20258;-71
2023/07/03 05:28:32;;;;;;;10.13;3.00;;;15.60;99.90;;;;;;5054926;28;20607;-70
2023/07/03 05:30:58;;;;;;;15.37;2.50;;;15.70;99.90;;;;;;5055243;28;20186;-71
2023/07/03 05:33:25;;;;;;;8.93;3.83;;;15.80;99.90;;;;;;5055168;28;20455;-69
2023/07/03 05:35:51;;;;;;;4.60;2.73;;;15.80;99.90;;;;;;5053674;28;20810;-69
2023/07/03 05:38:18;;;;;;;11.47;2.80;;;15.80;99.90;;;;;;5054263;28;20479;-69
2023/07/03 05:40:44;;;;;;;10.10;3.30;;;15.80;99.90;;;;;;5054577;28;20496;-69
2023/07/03 05:43:10;;;;;;;14.53;3.50;;;15.90;99.90;;;;;;5054334;28;20500;-69
2023/07/03 05:45:35;;;;;;;10.03;2.60;;;16.00;99.90;;;;;;5054441;28;20248;-71
2023/07/03 05:48:02;;;;;;;5.83;2.60;;;16.10;99.90;;;;;;5054343;28;21016;-68
2023/07/03 05:50:28;;;;;;;10.67;3.67;;;16.20;99.90;;;;;;5053794;28;20568;-69
2023/07/03 05:52:53;;;;;;;5.63;2.80;;;16.30;99.90;;;;;;5054371;28;20451;-69
2023/07/03 05:55:19;;;;;;;9.50;3.20;;;16.40;99.90;;;;;;5053983;28;20998;-68
2023/07/03 05:57:45;;;;;;;5.47;2.60;;;16.50;99.90;;;;;;5054481;28;20193;-71
2023/07/03 06:00:13;;;;;;;9.23;3.83;;;16.60;99.90;;;;;;5054169;28;20207;-69
2023/07/03 06:02:42;;;;;;;10.47;3.33;;;16.70;99.90;;;;;;5054157;28;20190;-70
2023/07/03 06:05:09;;;;;;;12.93;3.73;;;16.80;99.90;;;;;;5053608;28;20495;-69
2023/07/03 06:07:35;;;;;;;7.27;3.17;;;16.90;99.90;;;;;;5053787;28;20461;-70
2023/07/03 06:10:01;;;;;;;6.23;2.73;;;17.00;99.90;;;;;;5054044;28;20401;-70
2023/07/03 06:12:29;;;;;;;7.17;3.33;;;17.20;99.90;;;;;;5053892;28;20167;-69
2023/07/03 06:14:56;;;;;;;7.43;2.83;;;17.20;99.90;;;;;;5053814;28;20437;-70
2023/07/03 06:17:23;;;;;;;10.10;3.70;;;17.10;99.90;;;;;;5053768;28;20480;-70
2023/07/03 06:19:48;;;;;;;8.30;3.33;;;17.10;99.90;;;;;;5053842;28;20402;-69
2023/07/03 06:22:14;;;;;;;9.87;3.00;;;17.20;99.90;;;;;;5053882;28;20411;-70
2023/07/03 06:24:39;;;;;;;8.57;2.80;;;17.40;99.90;;;;;;5053726;28;20163;-71
2023/07/03 06:27:06;;;;;;;4.63;2.03;;;17.30;99.90;;;;;;5053245;28;20187;-69
2023/07/03 06:29:32;;;;;;;8.90;4.00;;;17.30;99.90;;;;;;5052344;28;20261;-69
2023/07/03 06:31:57;;;;;;;8.40;3.90;;;17.30;99.90;;;;;;5053550;28;20493;-70
2023/07/03 06:34:23;;;;;;;5.97;2.57;;;17.40;99.90;;;;;;5053696;28;20171;-70
2023/07/03 06:36:49;;;;;;;8.97;3.17;;;17.50;99.90;;;;;;5053177;28;20194;-69
2023/07/03 06:39:14;;;;;;;9.10;3.53;;;17.60;99.90;;;;;;5053492;28;20166;-70
2023/07/03 06:41:40;;;;;;;7.40;2.60;;;17.70;99.90;;;;;;5053386;28;20171;-70
2023/07/03 06:44:11;;;;;;;12.30;5.27;;;17.70;99.90;;;;;;5053363;28;20692;-70
2023/07/03 06:46:37;;;;;;;5.50;3.30;;;17.80;99.90;;;;;;5053009;28;20218;-69
2023/07/03 06:49:02;;;;;;;8.10;3.50;;;17.80;99.90;;;;;;5052729;28;20480;-71
2023/07/03 06:51:28;;;;;;;6.40;3.70;;;17.80;99.90;;;;;;5053161;28;20699;-70
2023/07/03 06:53:54;;;;;;;8.43;4.00;;;17.80;99.90;;;;;;5053105;28;20174;-70
2023/07/03 06:56:20;;;;;;;5.50;2.57;;;17.80;99.90;;;;;;5052649;28;20531;-70
2023/07/03 06:58:47;;;;;;;14.27;3.17;;;17.80;99.90;;;;;;5053131;28;20167;-70
2023/07/03 07:01:14;;;;;;;12.37;3.90;;;18.00;99.90;;;;;;5052986;28;20809;-71
2023/07/03 07:03:40;;;;;;;12.77;3.70;;;18.10;99.90;;;;;;5052930;28;20417;-70
2023/07/03 07:06:14;;;;;;;9.70;4.37;;;18.20;99.90;;;;;;5052532;28;20401;-70
2023/07/03 07:08:40;;;;;;;7.17;4.13;;;18.40;99.90;;;;;;5052724;28;20190;-70
2023/07/03 07:11:11;;;;;;;14.70;2.90;;;18.60;99.90;;;;;;5052846;28;20405;-71
2023/07/03 07:13:40;;;;;;;10.73;3.70;;;18.50;99.90;;;;;;5052881;28;20417;-71
2023/07/03 07:16:14;;;;;;;7.03;2.70;;;18.60;99.90;;;;;;5051707;28;20407;-69
2023/07/03 07:18:40;;;;;;;9.90;3.20;;;18.80;99.90;;;;;;5052839;28;20394;-69
2023/07/03 07:21:06;;;;;;;15.20;3.40;;;18.80;99.90;;;;;;5052644;28;20404;-71
2023/07/03 07:23:31;;;;;;;14.23;3.80;;;19.00;99.90;;;;;;5052597;28;20763;-70
2023/07/03 07:25:57;;;;;;;10.73;3.77;;;19.40;99.90;;;;;;5052553;28;20584;-70
2023/07/03 07:28:22;;;;;;;18.70;3.93;;;20.00;99.90;;;;;;5051139;28;20564;-71
2023/07/03 07:30:48;;;;;;;7.53;2.90;;;20.10;99.90;;;;;;5052563;28;20639;-69
2023/07/03 07:33:14;;;;;;;23.27;4.40;;;20.40;99.90;;;;;;5052469;28;20163;-71
2023/07/03 07:35:41;;;;;;;8.93;3.90;;;20.40;99.90;;;;;;5052112;28;20470;-69
2023/07/03 07:38:07;;;;;;;10.43;3.17;;;20.40;99.90;;;;;;5052384;28;20194;-70
2023/07/03 07:40:32;;;;;;;12.50;2.63;;;20.50;99.90;;;;;;5052451;28;20489;-71
2023/07/03 07:42:58;;;;;;;5.53;3.07;;;20.50;99.90;;;;;;5052325;28;20232;-68
2023/07/03 07:45:23;;;;;;;10.17;3.13;;;20.60;99.90;;;;;;5051908;28;20640;-71
2023/07/03 07:47:49;;;;;;;7.43;3.17;;;20.60;99.90;;;;;;5052092;28;20201;-69
2023/07/03 07:50:14;;;;;;;8.47;3.33;;;20.70;99.90;;;;;;5050864;28;20178;-69
2023/07/03 07:52:40;;;;;;;11.23;4.33;;;20.80;99.90;;;;;;5052142;28;20694;-69
2023/07/03 07:55:06;;;;;;;15.07;3.97;;;22.60;99.90;;;;;;5051974;28;20233;-70
2023/07/03 07:57:31;;;;;;;9.07;3.63;;;24.10;93.60;;;;;;5052152;28;20195;-69
2023/07/03 07:59:57;;;;;;;8.43;3.90;;;24.00;85.80;;;;;;5052032;28;20401;-70
2023/07/03 08:02:22;;;;;;;9.23;2.83;;;24.40;84.90;;;;;;5051968;28;20221;-70
2023/07/03 08:04:48;;;;;;;5.80;3.37;;;26.60;75.70;;;;;;5051970;28;20167;-71
2023/07/03 08:07:14;;;;;;;14.03;5.23;;;27.30;61.80;;;;;;5051427;28;20202;-71
2023/07/03 08:09:39;;;;;;;5.07;2.97;;;27.70;56.80;;;;;;5051873;28;20300;-71
2023/07/03 08:12:05;;;;;;;3.83;2.40;;;27.20;51.00;;;;;;5051913;28;20177;-70
2023/07/03 08:14:31;;;;;;;9.07;3.37;;;28.40;54.80;;;;;;5051890;28;20171;-72
2023/07/03 08:16:57;;;;;;;8.47;3.53;;;30.60;52.40;;;;;;5051505;28;20703;-69
2023/07/03 08:19:22;;;;;;;6.57;3.37;;;31.10;47.20;;;;;;5051789;28;20228;-69
2023/07/03 08:21:48;;;;;;;8.63;3.13;;;30.10;43.70;;;;;;5051678;28;20166;-69
2023/07/03 08:24:14;;;;;;;11.50;2.87;;;29.00;44.20;;;;;;5051772;28;20170;-68
2023/07/03 08:26:41;;;;;;;7.33;3.30;;;28.20;45.50;;;;;;5052731;28;20206;-69
2023/07/03 08:29:07;;;;;;;8.60;3.20;;;27.80;46.20;;;;;;5054536;28;20202;-69
2023/07/03 08:31:33;;;;;;;7.07;2.83;;;28.20;48.00;;;;;;5055890;28;20767;-68
2023/07/03 08:33:58;;;;;;;7.57;3.93;;;28.20;46.20;;;;;;5054520;28;20401;-69
2023/07/03 08:36:24;;;;;;;4.67;2.43;;;27.60;46.10;;;;;;5055422;28;20162;-69
2023/07/03 08:38:50;;;;;;;6.00;2.60;;;27.00;46.50;;;;;;5055717;28;20620;-68
2023/07/03 08:41:16;;;;;;;7.13;3.60;;;26.90;48.00;;;;;;5055686;28;20166;-68
2023/07/03 08:43:45;;;;;;;5.67;2.83;;;27.00;48.60;;;;;;5055600;28;20163;-69
2023/07/03 08:46:19;;;;;;;8.77;3.20;;;26.30;45.90;;;;;;5055295;28;20409;-69
2023/07/03 08:48:45;;;;;;;6.03;3.60;;;26.40;48.90;;;;;;5055378;28;20441;-68
2023/07/03 08:51:14;;;;;;;7.87;3.33;;;26.50;48.80;;;;;;5055467;28;20484;-69
2023/07/03 08:53:43;;;;;;;4.20;2.57;;;26.90;49.50;;;;;;5055533;28;20798;-69
2023/07/03 08:56:14;;;;;;;10.00;3.10;;;27.40;48.10;;;;;;5055139;28;20397;-69
2023/07/03 08:58:40;;;;;;;7.70;2.70;;;27.60;46.50;;;;;;5055322;28;20409;-70
2023/07/03 09:01:24;;;;;;;6.60;3.30;;;27.80;45.90;;;;;;5055286;28;20440;-69
2023/07/03 09:04:29;;;;;;;8.77;3.47;;;26.90;46.10;;;;;;5055310;28;20410;-69
2023/07/03 09:07:00;;;;;;;6.97;2.53;;;26.60;46.70;;;;;;5054807;28;20436;-69
2023/07/03 09:09:26;;;;;;;8.10;2.60;;;26.80;48.70;;;;;;5055138;28;21010;-69
2023/07/03 09:12:19;;;;;;;5.80;3.13;;;27.20;45.90;;;;;;5055056;28;20405;-69
2023/07/03 09:14:56;;;;;;;5.70;2.70;;;27.50;45.30;;;;;;5055086;28;20174;-68
2023/07/03 09:17:24;;;;;;;7.47;3.30;;;26.80;42.90;;;;;;5054817;28;20420;-68
2023/07/03 09:19:52;;;;;;;3.43;2.73;;;26.10;44.80;;;;;;5054917;28;20397;-68
2023/07/03 09:22:34;;;;;;;6.80;2.70;;;25.50;45.60;;;;;;5054901;28;20459;-67
2023/07/03 09:25:04;;;;;;;5.00;2.30;;;25.50;48.00;;;;;;5054582;28;20405;-68
2023/07/03 09:27:30;;;;;;;3.30;2.53;;;25.60;48.00;;;;;;5054652;28;20441;-68
2023/07/03 09:30:03;;;;;;;3.30;2.27;;;25.70;48.80;;;;;;5054998;28;20398;-68
2023/07/03 09:32:30;;;;;;;8.77;2.40;;;26.00;49.20;;;;;;5054715;28;20201;-69
2023/07/03 09:35:06;;;;;;;3.87;3.57;;;25.90;47.20;;;;;;5054469;28;20412;-69
2023/07/03 09:37:44;;;;;;;4.10;2.63;;;25.90;45.80;;;;;;5054334;28;20417;-68
2023/07/03 09:40:26;;;;;;;6.30;2.00;;;26.00;47.10;;;;;;5054652;28;20390;-69
2023/07/03 09:42:53;;;;;;;3.73;2.27;;;26.00;44.80;;;;;;5054448;28;20398;-68
2023/07/03 09:45:21;;;;;;;4.63;3.10;;;26.10;44.90;;;;;;5054670;28;20906;-68
2023/07/03 09:47:53;;;;;;;3.77;2.37;;;25.60;45.30;;;;;;5054335;28;20553;-67
2023/07/03 09:50:36;;;;;;;5.57;2.80;;;25.30;46.10;;;;;;5054562;28;20458;-68
2023/07/03 09:53:03;;;;;;;4.40;2.70;;;25.10;47.00;;;;;;5054296;28;20773;-68
2023/07/03 09:55:29;;;;;;;5.30;3.27;;;24.90;46.90;;;;;;5053967;28;20413;-69
2023/07/03 09:57:55;;;;;;;7.50;3.43;;;24.70;47.90;;;;;;5054122;28;20428;-69
2023/07/03 10:00:23;;;;;;;10.37;3.30;;;24.10;47.30;;;;;;5054266;28;20402;-69
2023/07/03 10:02:56;;;;;;;5.33;2.53;;;24.00;48.80;;;;;;5054189;28;20952;-68
2023/07/03 10:05:33;;;;;;;4.63;2.40;;;23.80;49.20;;;;;;5053826;28;20394;-68
2023/07/03 10:08:04;;;;;;;9.83;2.90;;;24.00;50.20;;;;;;5053790;28;20555;-67
2023/07/03 10:10:33;;;;;;;4.70;2.63;;;24.40;50.40;;;;;;5054002;28;20834;-67
2023/07/03 10:13:07;;;;;;;3.20;2.90;;;25.00;50.80;;;;;;5053905;28;20405;-68
2023/07/03 10:15:40;;;;;;;4.80;2.60;;;25.40;48.70;;;;;;5053761;28;20963;-67
2023/07/03 10:18:20;;;;;;;3.20;2.90;;;26.80;51.60;;;;;;5053836;28;20417;-67
2023/07/03 10:20:48;;;;;;;4.80;2.50;;;28.20;47.10;;;;;;5053928;28;20416;-67
2023/07/03 10:23:22;;;;;;;8.20;2.93;;;29.40;47.00;;;;;;5053679;28;20783;-69
2023/07/03 10:26:04;;;;;;;5.60;3.07;;;29.60;43.20;;;;;;5053490;28;20425;-68
2023/07/03 10:28:45;;;;;;;5.53;2.80;;;28.40;43.70;;;;;;5053557;28;20456;-68
2023/07/03 10:31:18;;;;;;;4.27;2.70;;;27.80;45.30;;;;;;5053647;28;20409;-68
2023/07/03 10:33:47;;;;;;;7.87;2.70;;;26.80;45.30;;;;;;5053706;28;20404;-67
2023/07/03 10:36:19;;;;;;;6.63;3.30;;;25.80;46.70;;;;;;5053199;28;20494;-68
2023/07/03 10:39:07;;;;;;;7.70;3.13;;;24.70;48.20;;;;;;5053539;28;20409;-70
2023/07/03 10:41:57;;;;;;;9.80;3.50;;;24.10;49.40;;;;;;5053542;28;20409;-69
2023/07/03 10:44:27;;;;;;;4.63;3.00;;;23.80;50.70;;;;;;5053343;28;20405;-69
2023/07/03 10:47:18;;;;;;;4.03;2.80;;;24.60;51.80;;;;;;5052965;28;20422;-69
2023/07/03 10:49:46;;;;;;;10.77;2.90;;;26.70;52.50;;;;;;5052275;28;20405;-69
2023/07/03 10:52:33;;;;;;;9.67;2.80;;;28.40;49.20;;;;;;5053035;28;20755;-68
2023/07/03 10:55:16;;;;;;;5.00;3.20;;;29.00;47.10;;;;;;5053042;28;20389;-68
2023/07/03 10:58:10;;;;;;;6.43;2.70;;;28.90;45.60;;;;;;5052989;28;20429;-69
2023/07/03 11:00:52;;;;;;;3.93;2.90;;;28.30;45.00;;;;;;5053149;28;20443;-68
2023/07/03 11:03:28;;;;;;;4.57;3.50;;;26.80;44.50;;;;;;5053111;28;20469;-69
2023/07/03 11:06:28;;;;;;;9.10;3.43;;;25.90;46.30;;;;;;5052627;28;20389;-68
2023/07/03 11:09:12;;;;;;;7.20;3.43;;;25.20;46.80;;;;;;5052854;28;20554;-68
2023/07/03 11:11:50;;;;;;;4.00;2.10;;;24.90;47.60;;;;;;5052798;28;20398;-72
2023/07/03 11:14:39;;;;;;;10.83;3.30;;;25.00;49.80;;;;;;5052804;28;20489;-69
2023/07/03 11:17:37;;;;;;;5.90;2.57;;;25.70;50.70;;;;;;5052503;28;20512;-69
2023/07/03 11:20:19;;;;;;;7.27;2.97;;;26.60;48.50;;;;;;5040478;28;20413;-68
2023/07/03 11:22:54;;;;;;;3.20;2.67;;;27.30;46.60;;;;;;5052639;28;20412;-67
2023/07/03 11:25:26;;;;;;;5.63;2.40;;;28.30;45.10;;;;;;5052335;28;20395;-69
2023/07/03 11:28:19;;;;;;;5.83;4.00;;;29.10;44.00;;;;;;5051071;28;21040;-69
2023/07/03 11:30:45;;;;;;;5.10;4.03;;;29.00;43.20;;;;;;5052563;28;20758;-71
2023/07/03 11:33:13;;;;;;;6.40;4.03;;;29.30;43.80;;;;;;5051087;28;20413;-68
2023/07/03 11:35:50;;;;;;;9.27;3.30;;;29.70;41.50;;;;;;5052152;28;20500;-68
2023/07/03 11:38:18;;;;;;;3.67;2.90;;;29.20;40.60;;;;;;5052507;28;20470;-68
2023/07/03 11:40:55;;;;;;;7.50;3.03;;;28.80;41.90;;;;;;5052349;28;20406;-68
2023/07/03 11:43:39;;;;;;;10.10;2.87;;;27.80;41.60;;;;;;5052362;28;20427;-68
2023/07/03 11:46:08;;;;;;;2.87;2.07;;;27.90;42.00;;;;;;5051981;28;20774;-70
2023/07/03 11:48:43;;;;;;;6.07;2.50;;;28.20;42.00;;;;;;5052040;28;20452;-69
2023/07/03 11:51:12;;;;;;;8.20;3.00;;;30.10;44.10;;;;;;5052189;28;20397;-70
2023/07/03 11:53:46;;;;;;;6.10;3.17;;;32.50;39.90;;;;;;5052165;28;20394;-69
2023/07/03 11:56:35;;;;;;;3.93;2.43;;;34.40;38.10;;;;;;5051691;28;20393;-69
2023/07/03 11:59:08;;;;;;;2.77;2.50;;;36.40;34.30;;;;;;5048918;28;20424;-70
2023/07/03 12:01:36;;;;;;;6.60;2.87;;;37.40;30.10;;;;;;5051645;28;20405;-70
2023/07/03 12:04:05;;;;;;;7.13;3.50;;;37.60;29.60;;;;;;5052002;28;20485;-69
2023/07/03 12:06:42;;;;;;;3.43;2.73;;;37.20;28.60;;;;;;5051465;28;20433;-69
2023/07/03 12:09:24;;;;;;;10.13;3.90;;;37.90;29.20;;;;;;5052071;28;20546;-70
2023/07/03 12:12:06;;;;;;;5.20;2.70;;;38.40;28.60;;;;;;5051935;28;20394;-70
2023/07/03 12:14:46;;;;;;;11.73;3.80;;;37.60;27.10;;;;;;5052029;28;20793;-69
2023/07/03 12:17:24;;;;;;;3.40;2.90;;;34.00;27.80;;;;;;5051509;28;20432;-70
2023/07/03 12:20:08;;;;;;;4.63;3.00;;;32.00;30.40;;;;;;5051745;28;20413;-68
2023/07/03 12:22:40;;;;;;;7.37;2.83;;;30.10;31.70;;;;;;5051780;28;20397;-70
2023/07/03 12:25:08;;;;;;;4.70;2.30;;;29.10;33.50;;;;;;5051544;28;20402;-70
2023/07/03 12:27:35;;;;;;;12.63;3.30;;;28.20;34.70;;;;;;5050324;28;20578;-69
2023/07/03 12:30:01;;;;;;;3.97;2.40;;;27.70;36.70;;;;;;5050454;28;20475;-68
2023/07/03 12:32:32;;;;;;;11.03;3.40;;;27.20;37.90;;;;;;5051770;28;20424;-68
2023/07/03 12:35:17;;;;;;;5.60;3.50;;;28.30;38.20;;;;;;5051294;28;20431;-69
2023/07/03 12:37:49;;;;;;;5.63;3.10;;;29.90;36.00;;;;;;5051508;28;20421;-70
2023/07/03 12:40:16;;;;;;;5.20;3.07;;;30.60;35.70;;;;;;5051686;28;20421;-69
2023/07/03 12:42:48;;;;;;;6.40;3.00;;;31.50;33.70;;;;;;5051516;28;20409;-71
2023/07/03 12:45:17;;;;;;;6.20;3.03;;;30.80;32.70;;;;;;5051442;28;20770;-69
2023/07/03 12:47:43;;;;;;;4.83;2.93;;;29.40;34.40;;;;;;5051520;28;20457;-69
2023/07/03 12:50:18;;;;;;;6.10;3.33;;;28.00;36.50;;;;;;5051554;28;20405;-69
2023/07/03 12:52:44;;;;;;;4.97;2.93;;;27.10;37.60;;;;;;5051672;28;20186;-69
2023/07/03 12:55:11;;;;;;;7.60;3.20;;;26.20;38.70;;;;;;5051258;28;20449;-69
2023/07/03 12:57:37;;;;;;;4.60;3.00;;;26.10;40.40;;;;;;5050171;28;20190;-71